Página principal
METAR-TAF:

METAR-TAF

Aeroportos :

Aeroporto Francisco Sá Carneiro

Porto, Portugal

latitude: 41-14N, longitude: 008-41W, altura: 69 m

Observação actual do tempo

O boletim foi feito há 22 minutos, às 16:30 UTC
Vento 12 kt de nor-noroeste
Temperatura 24°C
Humidade 65%
Pressão 1022 hPa
Visibilidade 10 km ou mais
sem nuvens abaixo de 1500 metros e sem cumulonimbus

METAR: LPPR 231630Z 34012KT CAVOK 24/17 Q1022

Hora: 17:52 (16:52 UTC)

Previsão

O boletim foi feito há 5 horas e 52 minutos, às 11:00 UTC
Previsão válida de 23 às 12 UTC a 24 às 12 UTC
Vento 7 kt de oeste
Visibilidade 10 km ou mais
sem nuvens abaixo de 1500 metros e sem cumulonimbus
Tornando-se
de 23 às 12 UTC a 23 às 14 UTC
Vento 10 kt de nor-noroeste
Tornando-se
de 23 às 18 UTC a 23 às 20 UTC
Vento 3 kt com direcção variável
Tornando-se
de 24 às 07 UTC a 24 às 10 UTC
Vento 8 kt de este

TAF: LPPR 231100Z 2312/2412 28007KT CAVOK BECMG 2312/2314 34010KT BECMG 2318/2320 VRB03KT BECMG 2407/2410 08008KT

Observações e previsões do tempo de mais de 4000 aeroportos (mensagens METAR e TAF).

As estações disponíveis são os pontos amarelos e vermelhos sobre o mapa.

Mova o rato sobre o mapa para ver o nome da estação.

Depois clique no ponto para visualizar as observações e previsões meteorológicas.

Para alterar o mapa : clique nos botões verdes com uma cruz preta para aumentar o zoom; no botão verde com uma pitada de zoom; ou nas setas verdes para mapas adjacentes.


METAR-TAF: